sensor_id;sensor_type;location;lat;lon;timestamp;pressure;altitude;pressure_sealevel;temperature;humidity
12624;BME280;6377;42.836;23.998;2023-06-26T00:01:41;95423.72;;;22.03;100.00
12624;BME280;6377;42.836;23.998;2023-06-26T00:04:09;95425.28;;;21.99;100.00
12624;BME280;6377;42.836;23.998;2023-06-26T00:06:40;95418.63;;;22.06;100.00
12624;BME280;6377;42.836;23.998;2023-06-26T00:09:07;95412.09;;;21.97;100.00
12624;BME280;6377;42.836;23.998;2023-06-26T00:11:36;95425.34;;;22.04;100.00
12624;BME280;6377;42.836;23.998;2023-06-26T00:14:03;95407.47;;;21.93;100.00
12624;BME280;6377;42.836;23.998;2023-06-26T00:16:32;95413.38;;;21.90;100.00
12624;BME280;6377;42.836;23.998;2023-06-26T00:18:59;95396.56;;;21.83;100.00
12624;BME280;6377;42.836;23.998;2023-06-26T00:21:27;95399.34;;;21.88;100.00
12624;BME280;6377;42.836;23.998;2023-06-26T00:23:54;95418.75;;;21.90;100.00
12624;BME280;6377;42.836;23.998;2023-06-26T00:26:21;95409.13;;;21.99;100.00
12624;BME280;6377;42.836;23.998;2023-06-26T00:28:51;95417.19;;;21.99;100.00
12624;BME280;6377;42.836;23.998;2023-06-26T00:31:18;95425.84;;;22.01;100.00
12624;BME280;6377;42.836;23.998;2023-06-26T00:33:46;95414.22;;;21.95;100.00
12624;BME280;6377;42.836;23.998;2023-06-26T00:36:13;95410.22;;;21.98;100.00
12624;BME280;6377;42.836;23.998;2023-06-26T00:38:40;95408.91;;;22.05;100.00
12624;BME280;6377;42.836;23.998;2023-06-26T00:41:08;95409.13;;;21.99;100.00
12624;BME280;6377;42.836;23.998;2023-06-26T00:43:38;95422.16;;;22.07;100.00
12624;BME280;6377;42.836;23.998;2023-06-26T00:46:10;95412.19;;;22.07;100.00
12624;BME280;6377;42.836;23.998;2023-06-26T00:48:37;95407.31;;;22.04;100.00
12624;BME280;6377;42.836;23.998;2023-06-26T00:51:06;95387.22;;;21.90;100.00
12624;BME280;6377;42.836;23.998;2023-06-26T00:53:33;95358.69;;;21.62;100.00
12624;BME280;6377;42.836;23.998;2023-06-26T00:56:03;95406.47;;;21.77;100.00
12624;BME280;6377;42.836;23.998;2023-06-26T00:58:31;95404.78;;;21.71;100.00
12624;BME280;6377;42.836;23.998;2023-06-26T01:00:59;95404.75;;;21.66;100.00
12624;BME280;6377;42.836;23.998;2023-06-26T01:03:28;95399.41;;;21.71;100.00
12624;BME280;6377;42.836;23.998;2023-06-26T01:05:56;95401.06;;;21.72;100.00
12624;BME280;6377;42.836;23.998;2023-06-26T01:08:25;95401.84;;;21.72;100.00
12624;BME280;6377;42.836;23.998;2023-06-26T01:10:53;95407.81;;;21.74;100.00
12624;BME280;6377;42.836;23.998;2023-06-26T01:13:21;95394.59;;;21.73;100.00
12624;BME280;6377;42.836;23.998;2023-06-26T01:15:49;95412.72;;;21.83;100.00
12624;BME280;6377;42.836;23.998;2023-06-26T01:18:18;95401.63;;;21.79;100.00
12624;BME280;6377;42.836;23.998;2023-06-26T01:20:47;95382.75;;;21.74;100.00
12624;BME280;6377;42.836;23.998;2023-06-26T01:23:24;95401.19;;;21.87;100.00
12624;BME280;6377;42.836;23.998;2023-06-26T01:26:13;95371.88;;;21.64;100.00
12624;BME280;6377;42.836;23.998;2023-06-26T01:28:42;95402.66;;;21.73;100.00
12624;BME280;6377;42.836;23.998;2023-06-26T01:31:11;95390.94;;;21.57;100.00
12624;BME280;6377;42.836;23.998;2023-06-26T01:33:40;95373.53;;;21.43;100.00
12624;BME280;6377;42.836;23.998;2023-06-26T01:36:08;95379.44;;;21.40;100.00
12624;BME280;6377;42.836;23.998;2023-06-26T01:38:35;95392.84;;;21.35;100.00
12624;BME280;6377;42.836;23.998;2023-06-26T01:41:03;95381.84;;;21.37;100.00
12624;BME280;6377;42.836;23.998;2023-06-26T01:43:39;95374.28;;;21.34;100.00
12624;BME280;6377;42.836;23.998;2023-06-26T01:46:14;95393.78;;;21.46;100.00
12624;BME280;6377;42.836;23.998;2023-06-26T01:48:59;95358.41;;;21.37;100.00
12624;BME280;6377;42.836;23.998;2023-06-26T01:51:31;95387.13;;;21.53;100.00
12624;BME280;6377;42.836;23.998;2023-06-26T01:54:00;95383.53;;;21.43;100.00
12624;BME280;6377;42.836;23.998;2023-06-26T01:56:28;95354.13;;;21.36;100.00
12624;BME280;6377;42.836;23.998;2023-06-26T01:59:00;95387.16;;;21.58;100.00
12624;BME280;6377;42.836;23.998;2023-06-26T02:01:31;95372.31;;;21.51;100.00
12624;BME280;6377;42.836;23.998;2023-06-26T02:03:59;95377.75;;;21.61;100.00
12624;BME280;6377;42.836;23.998;2023-06-26T02:06:26;95359.16;;;21.54;100.00
12624;BME280;6377;42.836;23.998;2023-06-26T02:08:54;95368.16;;;21.43;100.00
12624;BME280;6377;42.836;23.998;2023-06-26T02:11:22;95378.69;;;21.45;100.00
12624;BME280;6377;42.836;23.998;2023-06-26T02:13:49;95366.06;;;21.45;100.00
12624;BME280;6377;42.836;23.998;2023-06-26T02:16:18;95356.69;;;21.26;100.00
12624;BME280;6377;42.836;23.998;2023-06-26T02:18:47;95380.34;;;21.24;100.00
12624;BME280;6377;42.836;23.998;2023-06-26T02:21:15;95365.66;;;21.10;100.00
12624;BME280;6377;42.836;23.998;2023-06-26T02:23:42;95347.53;;;21.05;100.00
12624;BME280;6377;42.836;23.998;2023-06-26T02:26:09;95355.25;;;21.18;100.00
12624;BME280;6377;42.836;23.998;2023-06-26T02:28:36;95365.84;;;21.25;100.00
12624;BME280;6377;42.836;23.998;2023-06-26T02:31:04;95366.13;;;21.29;100.00
12624;BME280;6377;42.836;23.998;2023-06-26T02:33:33;95353.25;;;21.31;100.00
12624;BME280;6377;42.836;23.998;2023-06-26T02:36:00;95367.66;;;21.46;100.00
12624;BME280;6377;42.836;23.998;2023-06-26T02:38:28;95285.59;;;20.95;100.00
12624;BME280;6377;42.836;23.998;2023-06-26T02:40:55;95380.41;;;21.56;100.00
12624;BME280;6377;42.836;23.998;2023-06-26T02:43:22;95372.66;;;21.59;100.00
12624;BME280;6377;42.836;23.998;2023-06-26T02:45:50;95378.59;;;21.61;100.00
12624;BME280;6377;42.836;23.998;2023-06-26T02:48:17;95340.97;;;21.40;100.00
12624;BME280;6377;42.836;23.998;2023-06-26T02:50:46;95359.69;;;21.56;100.00
12624;BME280;6377;42.836;23.998;2023-06-26T02:53:13;95369.19;;;21.64;100.00
12624;BME280;6377;42.836;23.998;2023-06-26T02:55:41;95367.59;;;21.63;100.00
12624;BME280;6377;42.836;23.998;2023-06-26T02:58:08;95370.56;;;21.66;100.00
12624;BME280;6377;42.836;23.998;2023-06-26T03:00:36;95361.13;;;21.64;100.00
12624;BME280;6377;42.836;23.998;2023-06-26T03:03:07;95371.31;;;21.62;100.00
12624;BME280;6377;42.836;23.998;2023-06-26T03:05:34;95377.72;;;21.56;100.00
12624;BME280;6377;42.836;23.998;2023-06-26T03:08:03;95379.00;;;21.48;100.00
12624;BME280;6377;42.836;23.998;2023-06-26T03:10:31;95373.41;;;21.28;100.00
12624;BME280;6377;42.836;23.998;2023-06-26T03:12:58;95382.84;;;21.31;100.00
12624;BME280;6377;42.836;23.998;2023-06-26T03:15:26;95394.97;;;21.33;100.00
12624;BME280;6377;42.836;23.998;2023-06-26T03:17:53;95342.66;;;21.02;100.00
12624;BME280;6377;42.836;23.998;2023-06-26T03:20:21;95371.50;;;21.29;100.00
12624;BME280;6377;42.836;23.998;2023-06-26T03:22:48;95379.88;;;21.32;100.00
12624;BME280;6377;42.836;23.998;2023-06-26T03:25:17;95366.13;;;21.29;100.00
12624;BME280;6377;42.836;23.998;2023-06-26T03:27:44;95360.75;;;21.29;100.00
12624;BME280;6377;42.836;23.998;2023-06-26T03:30:12;95362.75;;;21.38;100.00
12624;BME280;6377;42.836;23.998;2023-06-26T03:32:40;95370.84;;;21.43;100.00
12624;BME280;6377;42.836;23.998;2023-06-26T03:35:07;95379.03;;;21.53;100.00
12624;BME280;6377;42.836;23.998;2023-06-26T03:37:35;95366.97;;;21.34;100.00
12624;BME280;6377;42.836;23.998;2023-06-26T03:40:02;95333.13;;;21.11;100.00
12624;BME280;6377;42.836;23.998;2023-06-26T03:42:32;95388.13;;;21.47;100.00
12624;BME280;6377;42.836;23.998;2023-06-26T03:45:00;95358.50;;;21.42;100.00
12624;BME280;6377;42.836;23.998;2023-06-26T03:47:27;95376.59;;;21.52;100.00
12624;BME280;6377;42.836;23.998;2023-06-26T03:49:54;95375.00;;;21.51;100.00
12624;BME280;6377;42.836;23.998;2023-06-26T03:52:22;95369.28;;;21.47;100.00
12624;BME280;6377;42.836;23.998;2023-06-26T03:54:49;95373.53;;;21.43;100.00
12624;BME280;6377;42.836;23.998;2023-06-26T03:57:16;95366.28;;;21.44;100.00
12624;BME280;6377;42.836;23.998;2023-06-26T03:59:45;95381.19;;;21.51;100.00
12624;BME280;6377;42.836;23.998;2023-06-26T04:02:12;95382.06;;;21.57;100.00
12624;BME280;6377;42.836;23.998;2023-06-26T04:04:40;95374.78;;;21.57;100.00
12624;BME280;6377;42.836;23.998;2023-06-26T04:07:07;95380.97;;;21.58;100.00
12624;BME280;6377;42.836;23.998;2023-06-26T04:09:34;95376.91;;;21.55;100.00
12624;BME280;6377;42.836;23.998;2023-06-26T04:12:02;95222.44;;;20.49;100.00
12624;BME280;6377;42.836;23.998;2023-06-26T04:14:29;95377.81;;;21.39;100.00
12624;BME280;6377;42.836;23.998;2023-06-26T04:16:59;95376.50;;;21.42;100.00
12624;BME280;6377;42.836;23.998;2023-06-26T04:19:27;95381.06;;;21.41;100.00
12624;BME280;6377;42.836;23.998;2023-06-26T04:21:54;95390.78;;;21.42;100.00
12624;BME280;6377;42.836;23.998;2023-06-26T04:24:22;95388.50;;;21.34;100.00
12624;BME280;6377;42.836;23.998;2023-06-26T04:26:49;95394.16;;;21.33;100.00
12624;BME280;6377;42.836;23.998;2023-06-26T04:29:16;95395.03;;;21.38;100.00
12624;BME280;6377;42.836;23.998;2023-06-26T04:31:43;95403.09;;;21.38;100.00
12624;BME280;6377;42.836;23.998;2023-06-26T04:34:13;95397.28;;;21.25;100.00
12624;BME280;6377;42.836;23.998;2023-06-26T04:36:41;95399.72;;;21.26;100.00
12624;BME280;6377;42.836;23.998;2023-06-26T04:39:13;95386.25;;;21.04;100.00
12624;BME280;6377;42.836;23.998;2023-06-26T04:41:41;95398.25;;;21.13;100.00
12624;BME280;6377;42.836;23.998;2023-06-26T04:44:08;95399.66;;;21.21;100.00
12624;BME280;6377;42.836;23.998;2023-06-26T04:46:36;95392.47;;;21.27;100.00
12624;BME280;6377;42.836;23.998;2023-06-26T04:49:06;95397.66;;;21.33;100.00
12624;BME280;6377;42.836;23.998;2023-06-26T04:51:35;95401.16;;;21.34;100.00
12624;BME280;6377;42.836;23.998;2023-06-26T04:54:06;95405.41;;;21.30;100.00
12624;BME280;6377;42.836;23.998;2023-06-26T04:56:34;95386.44;;;21.19;100.00
12624;BME280;6377;42.836;23.998;2023-06-26T04:59:01;95397.97;;;21.15;100.00
12624;BME280;6377;42.836;23.998;2023-06-26T05:01:29;95402.34;;;21.21;100.00
12624;BME280;6377;42.836;23.998;2023-06-26T05:03:57;95367.44;;;21.04;100.00
12624;BME280;6377;42.836;23.998;2023-06-26T05:06:25;95383.66;;;21.09;100.00
12624;BME280;6377;42.836;23.998;2023-06-26T05:08:53;95403.69;;;21.02;100.00
12624;BME280;6377;42.836;23.998;2023-06-26T05:11:21;95405.50;;;20.96;100.00
12624;BME280;6377;42.836;23.998;2023-06-26T05:13:48;95409.22;;;20.74;100.00
12624;BME280;6377;42.836;23.998;2023-06-26T05:16:15;95415.81;;;20.83;100.00
12624;BME280;6377;42.836;23.998;2023-06-26T05:18:43;95415.69;;;20.94;100.00
12624;BME280;6377;42.836;23.998;2023-06-26T05:21:10;95421.13;;;20.99;100.00
12624;BME280;6377;42.836;23.998;2023-06-26T05:23:38;95418.03;;;21.07;100.00
12624;BME280;6377;42.836;23.998;2023-06-26T05:26:07;95412.34;;;21.04;100.00
12624;BME280;6377;42.836;23.998;2023-06-26T05:28:35;95422.44;;;21.13;100.00
12624;BME280;6377;42.836;23.998;2023-06-26T05:31:03;95424.09;;;21.19;100.00
12624;BME280;6377;42.836;23.998;2023-06-26T05:33:33;95430.69;;;21.29;100.00
12624;BME280;6377;42.836;23.998;2023-06-26T05:36:04;95425.63;;;21.32;100.00
12624;BME280;6377;42.836;23.998;2023-06-26T05:38:32;95426.13;;;21.29;100.00
12624;BME280;6377;42.836;23.998;2023-06-26T05:41:00;95425.13;;;21.35;100.00
12624;BME280;6377;42.836;23.998;2023-06-26T05:43:29;95422.94;;;21.32;100.00
12624;BME280;6377;42.836;23.998;2023-06-26T05:45:56;95432.69;;;21.38;100.00
12624;BME280;6377;42.836;23.998;2023-06-26T05:48:24;95429.31;;;21.26;100.00
12624;BME280;6377;42.836;23.998;2023-06-26T05:50:52;95430.00;;;21.16;100.00
12624;BME280;6377;42.836;23.998;2023-06-26T05:53:20;95434.63;;;20.83;100.00
12624;BME280;6377;42.836;23.998;2023-06-26T05:55:47;95436.31;;;20.89;100.00
12624;BME280;6377;42.836;23.998;2023-06-26T05:58:16;95437.16;;;20.89;100.00
12624;BME280;6377;42.836;23.998;2023-06-26T06:00:46;95420.09;;;20.62;100.00
12624;BME280;6377;42.836;23.998;2023-06-26T06:03:13;95437.59;;;20.64;100.00
12624;BME280;6377;42.836;23.998;2023-06-26T06:05:40;95441.50;;;20.57;100.00
12624;BME280;6377;42.836;23.998;2023-06-26T06:08:07;95444.34;;;20.67;100.00
12624;BME280;6377;42.836;23.998;2023-06-26T06:10:35;95450.78;;;20.66;100.00
12624;BME280;6377;42.836;23.998;2023-06-26T06:13:02;95445.47;;;20.71;100.00
12624;BME280;6377;42.836;23.998;2023-06-26T06:15:29;95450.84;;;20.71;100.00
12624;BME280;6377;42.836;23.998;2023-06-26T06:17:58;95434.56;;;20.61;100.00
12624;BME280;6377;42.836;23.998;2023-06-26T06:20:25;95449.00;;;20.72;100.00
12624;BME280;6377;42.836;23.998;2023-06-26T06:22:52;95455.88;;;20.84;100.00
12624;BME280;6377;42.836;23.998;2023-06-26T06:25:20;95450.00;;;20.87;100.00
12624;BME280;6377;42.836;23.998;2023-06-26T06:27:47;95441.16;;;20.87;100.00
12624;BME280;6377;42.836;23.998;2023-06-26T06:30:14;95440.25;;;20.81;100.00
12624;BME280;6377;42.836;23.998;2023-06-26T06:32:41;95308.78;;;20.03;100.00
12624;BME280;6377;42.836;23.998;2023-06-26T06:35:10;95426.06;;;20.86;100.00
12624;BME280;6377;42.836;23.998;2023-06-26T06:37:38;95399.03;;;20.76;100.00
12624;BME280;6377;42.836;23.998;2023-06-26T06:40:06;95430.03;;;21.00;100.00
12624;BME280;6377;42.836;23.998;2023-06-26T06:42:33;95369.09;;;20.67;100.00
12624;BME280;6377;42.836;23.998;2023-06-26T06:45:02;95405.31;;;20.81;100.00
12624;BME280;6377;42.836;23.998;2023-06-26T06:47:29;95438.13;;;20.83;100.00
12624;BME280;6377;42.836;23.998;2023-06-26T06:49:56;95417.78;;;20.71;100.00
12624;BME280;6377;42.836;23.998;2023-06-26T06:52:25;95438.19;;;20.88;100.00
12624;BME280;6377;42.836;23.998;2023-06-26T06:54:54;95432.22;;;21.03;100.00
12624;BME280;6377;42.836;23.998;2023-06-26T06:57:21;95437.50;;;21.14;100.00
12624;BME280;6377;42.836;23.998;2023-06-26T06:59:48;95423.75;;;21.33;100.00
12624;BME280;6377;42.836;23.998;2023-06-26T07:02:17;95428.69;;;21.41;100.00
12624;BME280;6377;42.836;23.998;2023-06-26T07:04:44;95436.50;;;21.42;100.00
12624;BME280;6377;42.836;23.998;2023-06-26T07:07:12;95418.06;;;21.29;100.00
12624;BME280;6377;42.836;23.998;2023-06-26T07:09:41;95426.69;;;21.31;100.00
12624;BME280;6377;42.836;23.998;2023-06-26T07:12:09;95441.81;;;21.37;100.00
12624;BME280;6377;42.836;23.998;2023-06-26T07:14:36;95443.25;;;21.23;100.00
12624;BME280;6377;42.836;23.998;2023-06-26T07:17:03;95443.03;;;21.25;100.00
12624;BME280;6377;42.836;23.998;2023-06-26T07:19:31;95411.44;;;21.15;100.00
12624;BME280;6377;42.836;23.998;2023-06-26T07:21:58;95439.88;;;21.33;100.00
12624;BME280;6377;42.836;23.998;2023-06-26T07:24:25;95445.53;;;21.31;100.00
12624;BME280;6377;42.836;23.998;2023-06-26T07:26:54;95440.25;;;21.41;100.00
12624;BME280;6377;42.836;23.998;2023-06-26T07:29:21;95444.00;;;21.62;100.00
12624;BME280;6377;42.836;23.998;2023-06-26T07:31:48;95446.13;;;21.60;100.00
12624;BME280;6377;42.836;23.998;2023-06-26T07:34:15;95439.81;;;21.49;100.00
12624;BME280;6377;42.836;23.998;2023-06-26T07:36:43;95427.16;;;21.50;100.00
12624;BME280;6377;42.836;23.998;2023-06-26T07:39:10;95446.34;;;21.80;100.00
12624;BME280;6377;42.836;23.998;2023-06-26T07:41:37;95416.25;;;21.61;100.00
12624;BME280;6377;42.836;23.998;2023-06-26T07:44:06;95448.09;;;21.91;100.00
12624;BME280;6377;42.836;23.998;2023-06-26T07:46:33;95439.84;;;21.98;100.00
12624;BME280;6377;42.836;23.998;2023-06-26T07:49:01;95402.16;;;21.76;100.00
12624;BME280;6377;42.836;23.998;2023-06-26T07:51:28;95444.94;;;21.99;100.00
12624;BME280;6377;42.836;23.998;2023-06-26T07:53:55;95453.34;;;22.03;100.00
12624;BME280;6377;42.836;23.998;2023-06-26T07:56:22;95449.94;;;22.12;100.00
12624;BME280;6377;42.836;23.998;2023-06-26T07:58:50;95459.19;;;22.21;100.00
12624;BME280;6377;42.836;23.998;2023-06-26T08:01:18;95335.47;;;21.56;100.00
12624;BME280;6377;42.836;23.998;2023-06-26T08:03:46;95458.59;;;22.19;100.00
12624;BME280;6377;42.836;23.998;2023-06-26T08:06:13;95461.56;;;22.18;100.00
12624;BME280;6377;42.836;23.998;2023-06-26T08:08:40;95453.72;;;22.16;100.00
12624;BME280;6377;42.836;23.998;2023-06-26T08:11:08;95462.03;;;22.10;100.00
12624;BME280;6377;42.836;23.998;2023-06-26T08:13:35;95472.50;;;22.06;100.00
12624;BME280;6377;42.836;23.998;2023-06-26T08:16:02;95459.84;;;22.07;100.00
12624;BME280;6377;42.836;23.998;2023-06-26T08:18:31;95449.66;;;22.14;100.00
12624;BME280;6377;42.836;23.998;2023-06-26T08:20:58;95453.94;;;22.37;100.00
12624;BME280;6377;42.836;23.998;2023-06-26T08:23:26;95456.16;;;22.45;100.00
12624;BME280;6377;42.836;23.998;2023-06-26T08:25:53;95461.66;;;22.60;100.00
12624;BME280;6377;42.836;23.998;2023-06-26T08:28:24;95450.94;;;22.65;100.00
12624;BME280;6377;42.836;23.998;2023-06-26T08:30:51;95399.06;;;22.16;100.00
12624;BME280;6377;42.836;23.998;2023-06-26T08:33:18;95431.75;;;22.29;100.00
12624;BME280;6377;42.836;23.998;2023-06-26T08:35:47;95448.19;;;22.28;100.00
12624;BME280;6377;42.836;23.998;2023-06-26T08:38:14;95340.03;;;21.56;100.00
12624;BME280;6377;42.836;23.998;2023-06-26T08:40:42;95455.53;;;22.38;100.00
12624;BME280;6377;42.836;23.998;2023-06-26T08:43:09;95437.84;;;22.15;100.00
12624;BME280;6377;42.836;23.998;2023-06-26T08:45:36;95449.56;;;22.30;100.00
12624;BME280;6377;42.836;23.998;2023-06-26T08:48:07;95436.09;;;22.30;100.00
12624;BME280;6377;42.836;23.998;2023-06-26T08:50:35;95440.50;;;22.42;100.00
12624;BME280;6377;42.836;23.998;2023-06-26T08:53:11;95397.53;;;22.25;100.00
12624;BME280;6377;42.836;23.998;2023-06-26T08:55:42;95398.63;;;22.34;100.00
12624;BME280;6377;42.836;23.998;2023-06-26T08:58:10;95422.69;;;22.41;100.00
12624;BME280;6377;42.836;23.998;2023-06-26T09:00:38;95448.25;;;22.70;100.00
12624;BME280;6377;42.836;23.998;2023-06-26T09:03:06;95444.03;;;22.79;100.00
12624;BME280;6377;42.836;23.998;2023-06-26T09:05:35;95425.78;;;22.54;100.00
12624;BME280;6377;42.836;23.998;2023-06-26T09:08:02;95428.19;;;22.56;100.00
12624;BME280;6377;42.836;23.998;2023-06-26T09:10:32;95453.97;;;22.78;100.00
12624;BME280;6377;42.836;23.998;2023-06-26T09:12:59;95443.78;;;22.85;100.00
12624;BME280;6377;42.836;23.998;2023-06-26T09:15:27;95442.44;;;22.83;100.00
12624;BME280;6377;42.836;23.998;2023-06-26T09:17:56;95418.94;;;22.78;100.00
12624;BME280;6377;42.836;23.998;2023-06-26T09:20:27;95412.72;;;22.78;100.00
12624;BME280;6377;42.836;23.998;2023-06-26T09:22:55;95335.69;;;22.08;100.00
12624;BME280;6377;42.836;23.998;2023-06-26T09:25:23;95333.78;;;22.04;100.00
12624;BME280;6377;42.836;23.998;2023-06-26T09:27:52;95451.88;;;22.85;100.00
12624;BME280;6377;42.836;23.998;2023-06-26T09:30:20;95443.91;;;23.01;100.00
12624;BME280;6377;42.836;23.998;2023-06-26T09:32:47;95420.66;;;22.95;99.17
12624;BME280;6377;42.836;23.998;2023-06-26T09:35:16;95428.47;;;23.43;100.00
12624;BME280;6377;42.836;23.998;2023-06-26T09:37:43;95429.97;;;23.91;93.41
12624;BME280;6377;42.836;23.998;2023-06-26T09:40:11;95430.03;;;24.26;89.95
12624;BME280;6377;42.836;23.998;2023-06-26T09:42:38;95429.75;;;24.13;87.17
12624;BME280;6377;42.836;23.998;2023-06-26T09:45:07;95432.69;;;24.06;85.69
12624;BME280;6377;42.836;23.998;2023-06-26T09:47:35;95437.28;;;24.01;87.42
12624;BME280;6377;42.836;23.998;2023-06-26T09:50:03;95426.19;;;24.07;85.52
12624;BME280;6377;42.836;23.998;2023-06-26T09:52:31;95438.41;;;24.15;82.58
12624;BME280;6377;42.836;23.998;2023-06-26T09:55:10;95432.97;;;24.10;80.52
12624;BME280;6377;42.836;23.998;2023-06-26T09:57:38;95388.88;;;23.79;80.05
12624;BME280;6377;42.836;23.998;2023-06-26T10:00:09;95408.63;;;23.89;80.33
12624;BME280;6377;42.836;23.998;2023-06-26T10:02:37;95437.00;;;24.07;82.17
12624;BME280;6377;42.836;23.998;2023-06-26T10:05:05;95435.66;;;24.05;85.27
12624;BME280;6377;42.836;23.998;2023-06-26T10:07:33;95437.00;;;23.97;84.21
12624;BME280;6377;42.836;23.998;2023-06-26T10:10:02;95428.06;;;23.96;89.60
12624;BME280;6377;42.836;23.998;2023-06-26T10:12:30;95443.19;;;23.87;88.40
12624;BME280;6377;42.836;23.998;2023-06-26T10:14:59;95430.16;;;23.69;90.07
12624;BME280;6377;42.836;23.998;2023-06-26T10:17:30;95444.44;;;23.55;90.95
12624;BME280;6377;42.836;23.998;2023-06-26T10:20:01;95440.19;;;23.74;91.84
12624;BME280;6377;42.836;23.998;2023-06-26T10:22:33;95432.66;;;23.86;90.06
12624;BME280;6377;42.836;23.998;2023-06-26T10:25:04;95434.53;;;23.95;90.53
12624;BME280;6377;42.836;23.998;2023-06-26T10:27:38;95422.94;;;23.85;89.90
12624;BME280;6377;42.836;23.998;2023-06-26T10:30:11;95419.97;;;23.96;90.38
12624;BME280;6377;42.836;23.998;2023-06-26T10:32:41;95417.31;;;24.12;90.36
12624;BME280;6377;42.836;23.998;2023-06-26T10:35:10;95417.06;;;24.48;87.29
12624;BME280;6377;42.836;23.998;2023-06-26T10:37:41;95413.25;;;24.95;80.78
12624;BME280;6377;42.836;23.998;2023-06-26T10:40:10;95418.66;;;24.85;80.40
12624;BME280;6377;42.836;23.998;2023-06-26T10:42:38;95410.25;;;25.01;77.59
12624;BME280;6377;42.836;23.998;2023-06-26T10:45:16;95405.59;;;25.17;76.44
12624;BME280;6377;42.836;23.998;2023-06-26T10:47:47;95404.31;;;25.69;72.42
12624;BME280;6377;42.836;23.998;2023-06-26T10:50:25;95404.59;;;26.16;66.94
12624;BME280;6377;42.836;23.998;2023-06-26T10:53:14;95386.00;;;26.33;63.89
12624;BME280;6377;42.836;23.998;2023-06-26T10:55:50;95395.84;;;25.85;64.41
12624;BME280;6377;42.836;23.998;2023-06-26T10:58:32;95398.84;;;25.79;65.83
12624;BME280;6377;42.836;23.998;2023-06-26T11:01:18;95394.50;;;25.78;67.64
12624;BME280;6377;42.836;23.998;2023-06-26T11:04:03;95385.03;;;25.75;68.15
12624;BME280;6377;42.836;23.998;2023-06-26T11:06:31;95392.25;;;26.34;62.76
12624;BME280;6377;42.836;23.998;2023-06-26T11:09:07;95378.53;;;26.20;63.26
12624;BME280;6377;42.836;23.998;2023-06-26T11:11:55;95399.31;;;26.35;61.52
12624;BME280;6377;42.836;23.998;2023-06-26T11:14:25;95401.63;;;26.46;63.61
12624;BME280;6377;42.836;23.998;2023-06-26T11:16:55;95387.09;;;25.49;75.17
12624;BME280;6377;42.836;23.998;2023-06-26T11:19:26;95408.50;;;25.41;78.22
12624;BME280;6377;42.836;23.998;2023-06-26T11:21:58;95406.75;;;25.01;88.16
12624;BME280;6377;42.836;23.998;2023-06-26T11:24:26;95413.53;;;24.88;91.53
12624;BME280;6377;42.836;23.998;2023-06-26T11:26:53;95407.06;;;24.44;93.83
12624;BME280;6377;42.836;23.998;2023-06-26T11:29:21;95411.03;;;23.81;95.24
12624;BME280;6377;42.836;23.998;2023-06-26T11:31:58;95414.50;;;23.61;100.00
12624;BME280;6377;42.836;23.998;2023-06-26T11:34:29;95422.44;;;23.31;100.00
12624;BME280;6377;42.836;23.998;2023-06-26T11:36:57;95420.13;;;22.98;100.00
12624;BME280;6377;42.836;23.998;2023-06-26T11:39:27;95416.00;;;22.85;100.00
12624;BME280;6377;42.836;23.998;2023-06-26T11:41:54;95416.13;;;23.10;100.00
12624;BME280;6377;42.836;23.998;2023-06-26T11:44:21;95413.25;;;23.22;100.00
12624;BME280;6377;42.836;23.998;2023-06-26T11:46:52;95414.31;;;23.26;100.00
12624;BME280;6377;42.836;23.998;2023-06-26T11:49:20;95413.06;;;23.38;99.89
12624;BME280;6377;42.836;23.998;2023-06-26T11:51:50;95416.66;;;23.59;98.50
12624;BME280;6377;42.836;23.998;2023-06-26T11:54:23;95377.81;;;23.90;94.30
12624;BME280;6377;42.836;23.998;2023-06-26T11:56:58;95405.72;;;24.46;90.36
12624;BME280;6377;42.836;23.998;2023-06-26T11:59:37;95403.53;;;24.48;90.91
12624;BME280;6377;42.836;23.998;2023-06-26T12:02:06;95404.88;;;24.46;91.97
12624;BME280;6377;42.836;23.998;2023-06-26T12:04:36;95410.56;;;24.60;91.09
12624;BME280;6377;42.836;23.998;2023-06-26T12:07:07;95387.56;;;24.57;93.74
12624;BME280;6377;42.836;23.998;2023-06-26T12:09:38;95396.25;;;24.39;93.42
12624;BME280;6377;42.836;23.998;2023-06-26T12:12:08;95407.63;;;24.36;90.28
12624;BME280;6377;42.836;23.998;2023-06-26T12:14:35;95396.53;;;24.47;96.51
12624;BME280;6377;42.836;23.998;2023-06-26T12:17:08;95421.09;;;24.61;95.03
12624;BME280;6377;42.836;23.998;2023-06-26T12:19:37;95416.50;;;24.16;97.79
12624;BME280;6377;42.836;23.998;2023-06-26T12:22:09;95424.63;;;24.46;94.98
12624;BME280;6377;42.836;23.998;2023-06-26T12:24:38;95423.03;;;24.30;89.50
12624;BME280;6377;42.836;23.998;2023-06-26T12:27:08;95423.78;;;24.01;91.80
12624;BME280;6377;42.836;23.998;2023-06-26T12:29:36;95425.69;;;24.25;93.46
12624;BME280;6377;42.836;23.998;2023-06-26T12:32:04;95406.78;;;24.40;91.65
12624;BME280;6377;42.836;23.998;2023-06-26T12:34:32;95424.84;;;25.05;83.53
12624;BME280;6377;42.836;23.998;2023-06-26T12:37:01;95421.34;;;24.75;83.08
12624;BME280;6377;42.836;23.998;2023-06-26T12:39:45;95414.56;;;25.07;78.64
12624;BME280;6377;42.836;23.998;2023-06-26T12:42:14;95422.56;;;25.53;77.54
12624;BME280;6377;42.836;23.998;2023-06-26T12:44:41;95436.03;;;26.12;70.20
12624;BME280;6377;42.836;23.998;2023-06-26T12:47:08;95431.06;;;26.29;69.55
12624;BME280;6377;42.836;23.998;2023-06-26T12:49:40;95430.97;;;26.73;66.08
12624;BME280;6377;42.836;23.998;2023-06-26T12:52:09;95411.81;;;26.93;63.94
12624;BME280;6377;42.836;23.998;2023-06-26T12:54:39;95434.91;;;26.57;64.79
12624;BME280;6377;42.836;23.998;2023-06-26T12:57:07;95432.59;;;25.96;67.08
12624;BME280;6377;42.836;23.998;2023-06-26T12:59:36;95452.66;;;25.95;68.98
12624;BME280;6377;42.836;23.998;2023-06-26T13:02:04;95456.97;;;26.06;66.28